Terminal Aerodrome Forecast
Issued by NWS

Home | Current Version | Previous Version | Text Only | Print | Product List | Glossary On
Versions: 1 2 3 4 5 6 7 8 9 10 11 12 13 14 15 16
000
FTUS45 KABQ 302334
TAFGUP
TAF
KGUP 302334Z 0100/0124 08012KT P6SM VCSH OVC050
      TEMPO 0100/0104 5SM -RA BKN030
     FM010400 08012G18KT 6SM -RA OVC030
      TEMPO 0108/0112 3SM -RASN BR OVC015
     FM011500 14013G22KT P6SM VCSH OVC025
     FM011900 16012G20KT P6SM VCSH BKN040 BKN070=

USA.gov is the U.S. government's official web portal to all federal, state and local government web resources and services.